createdAt,value
2019-04-16T00:00:02.315Z,17.50
2019-04-16T00:01:02.278Z,17.00
2019-04-16T00:02:02.333Z,17.10
2019-04-16T00:03:02.293Z,19.10
2019-04-16T00:04:02.306Z,18.00
2019-04-16T00:05:02.321Z,16.60
2019-04-16T00:06:02.304Z,18.00
2019-04-16T00:07:02.313Z,18.50
2019-04-16T00:08:02.318Z,20.70
2019-04-16T00:09:02.317Z,19.90
2019-04-16T00:10:02.305Z,19.30
2019-04-16T00:11:02.351Z,18.30
2019-04-16T00:12:02.304Z,18.70
2019-04-16T00:13:02.323Z,19.80
2019-04-16T00:14:03.486Z,20.80
2019-04-16T00:15:02.313Z,20.90
2019-04-16T00:16:02.322Z,19.40
2019-04-16T00:17:02.343Z,19.50
2019-04-16T00:18:02.337Z,17.70
2019-04-16T00:19:05.653Z,20.70
2019-04-16T00:20:05.663Z,21.70
2019-04-16T00:21:02.525Z,22.40
2019-04-16T00:22:02.340Z,21.50
2019-04-16T00:23:02.349Z,21.10
2019-04-16T00:24:02.314Z,20.60
2019-04-16T00:25:02.344Z,19.90
2019-04-16T00:26:02.303Z,18.70
2019-04-16T00:27:02.313Z,18.40
2019-04-16T00:28:02.317Z,19.30
2019-04-16T00:29:03.180Z,16.90
2019-04-16T00:30:04.862Z,16.10
2019-04-16T00:31:04.694Z,17.70
2019-04-16T00:32:02.350Z,17.90
2019-04-16T00:33:02.315Z,19.20
2019-04-16T00:34:02.328Z,17.20
2019-04-16T00:35:02.357Z,16.90
2019-04-16T00:36:02.345Z,16.60
2019-04-16T00:37:02.314Z,17.20
2019-04-16T00:38:02.369Z,19.80
2019-04-16T00:39:02.328Z,18.60
2019-04-16T00:40:02.332Z,19.00
2019-04-16T00:41:02.387Z,17.20
2019-04-16T00:42:02.339Z,15.90
2019-04-16T00:43:02.337Z,18.10
2019-04-16T00:44:02.332Z,16.90
2019-04-16T00:45:02.321Z,17.00
2019-04-16T00:46:02.322Z,19.50
2019-04-16T00:47:02.395Z,20.20
2019-04-16T00:48:02.334Z,20.30
2019-04-16T00:49:02.343Z,18.90
2019-04-16T00:50:02.340Z,18.70
2019-04-16T00:51:02.337Z,18.60
2019-04-16T00:52:05.898Z,19.10
2019-04-16T00:53:02.339Z,22.10
2019-04-16T00:54:02.332Z,22.50
2019-04-16T00:55:02.343Z,21.60
2019-04-16T00:56:02.338Z,25.30
2019-04-16T00:57:02.433Z,23.30
2019-04-16T00:58:02.349Z,22.20
2019-04-16T00:59:02.368Z,22.20
2019-04-16T01:00:02.337Z,23.20
2019-04-16T01:01:02.389Z,22.60
2019-04-16T01:02:02.496Z,21.20
2019-04-16T01:03:02.318Z,21.90
2019-04-16T01:04:03.064Z,21.20
2019-04-16T01:05:02.358Z,22.00
2019-04-16T01:06:07.034Z,26.20
2019-04-16T01:07:02.498Z,27.00
2019-04-16T01:08:02.321Z,25.20
2019-04-16T01:09:02.333Z,23.50
2019-04-16T01:10:02.343Z,22.20
2019-04-16T01:11:02.365Z,20.80
2019-04-16T01:12:02.337Z,23.10
2019-04-16T01:13:02.342Z,22.30
2019-04-16T01:14:02.351Z,22.60
2019-04-16T01:15:02.329Z,22.50
2019-04-16T01:16:03.746Z,22.10
2019-04-16T01:17:05.095Z,27.70
2019-04-16T01:18:04.618Z,24.50
2019-04-16T01:19:02.353Z,24.40
2019-04-16T01:20:02.349Z,27.40
2019-04-16T01:21:02.423Z,28.00
2019-04-16T01:22:02.372Z,24.90
2019-04-16T01:23:02.371Z,25.80
2019-04-16T01:24:02.351Z,24.90
2019-04-16T01:25:02.369Z,22.50
2019-04-16T01:26:02.362Z,21.80
2019-04-16T01:27:02.352Z,22.20
2019-04-16T01:28:02.355Z,22.00
2019-04-16T01:29:03.720Z,26.40
2019-04-16T01:30:04.888Z,23.90
2019-04-16T01:31:06.918Z,25.40
2019-04-16T01:32:02.432Z,24.10
2019-04-16T01:33:02.352Z,23.60
2019-04-16T01:34:02.372Z,21.80
2019-04-16T01:35:02.393Z,24.40
2019-04-16T01:36:02.367Z,24.70
2019-04-16T01:37:02.369Z,24.70
2019-04-16T01:38:02.369Z,25.30
2019-04-16T01:39:16.264Z,24.30
2019-04-16T01:40:02.361Z,23.20
2019-04-16T01:41:02.402Z,21.30
2019-04-16T01:42:02.366Z,21.10
2019-04-16T01:43:02.357Z,21.70
2019-04-16T01:44:02.405Z,22.60
2019-04-16T01:45:02.373Z,21.50
2019-04-16T01:46:02.811Z,21.20
2019-04-16T01:47:04.277Z,20.40
2019-04-16T01:48:06.679Z,21.10
2019-04-16T01:49:02.365Z,24.30
2019-04-16T01:50:02.413Z,24.20
2019-04-16T01:51:02.353Z,22.50
2019-04-16T01:52:02.377Z,23.40
2019-04-16T01:53:02.458Z,22.90
2019-04-16T01:54:02.596Z,24.30
2019-04-16T01:55:02.608Z,25.30
2019-04-16T01:56:02.601Z,27.50
2019-04-16T01:57:02.381Z,26.90
2019-04-16T01:58:03.641Z,27.60
2019-04-16T01:59:05.462Z,26.10
2019-04-16T02:00:06.747Z,26.90
2019-04-16T02:01:02.395Z,27.60
2019-04-16T02:02:02.379Z,25.80
2019-04-16T02:03:02.382Z,26.90
2019-04-16T02:04:02.389Z,26.50
2019-04-16T02:05:02.410Z,24.70
2019-04-16T02:06:02.398Z,23.70
2019-04-16T02:07:02.377Z,22.80
2019-04-16T02:08:02.393Z,21.40
2019-04-16T02:09:03.251Z,21.10
2019-04-16T02:10:06.448Z,22.20
2019-04-16T02:11:02.417Z,20.50
2019-04-16T02:12:02.380Z,22.30
2019-04-16T02:13:02.641Z,24.30
2019-04-16T02:14:02.622Z,22.40
2019-04-16T02:15:02.625Z,23.30
2019-04-16T02:16:02.404Z,22.30
2019-04-16T02:17:02.393Z,21.80
2019-04-16T02:18:02.404Z,29.00
2019-04-16T02:19:02.688Z,29.30
2019-04-16T02:20:06.202Z,28.60
2019-04-16T02:21:02.382Z,29.30
2019-04-16T02:22:02.386Z,27.80
2019-04-16T02:23:02.405Z,28.00
2019-04-16T02:24:02.399Z,27.20
2019-04-16T02:25:02.378Z,26.40
2019-04-16T02:26:02.439Z,26.80
2019-04-16T02:27:02.388Z,27.20
2019-04-16T02:28:02.410Z,29.10
2019-04-16T02:29:02.402Z,29.40
2019-04-16T02:30:04.653Z,27.50
2019-04-16T02:31:02.584Z,28.40
2019-04-16T02:32:02.403Z,26.70
2019-04-16T02:33:02.516Z,30.70
2019-04-16T02:34:02.630Z,27.60
2019-04-16T02:35:02.715Z,26.40
2019-04-16T02:36:02.659Z,27.70
2019-04-16T02:37:03.211Z,26.80
2019-04-16T02:38:02.708Z,25.70
2019-04-16T02:39:02.388Z,25.40
2019-04-16T02:40:02.542Z,25.00
2019-04-16T02:41:02.427Z,26.20
2019-04-16T02:42:02.779Z,27.20
2019-04-16T02:43:06.503Z,28.00
2019-04-16T02:44:02.789Z,28.50
2019-04-16T02:45:02.413Z,28.90
2019-04-16T02:46:02.413Z,27.00
2019-04-16T02:47:06.196Z,26.60
2019-04-16T02:48:02.422Z,26.10
2019-04-16T02:49:02.415Z,26.10
2019-04-16T02:50:02.429Z,26.40
2019-04-16T02:51:07.335Z,24.80
2019-04-16T02:52:02.425Z,25.50
2019-04-16T02:53:02.459Z,25.90
2019-04-16T02:54:02.438Z,26.10
2019-04-16T02:55:08.140Z,27.10
2019-04-16T02:56:02.448Z,26.70
2019-04-16T02:57:02.575Z,25.80
2019-04-16T02:58:02.557Z,27.80
2019-04-16T02:59:09.791Z,29.10
2019-04-16T03:00:02.431Z,29.40
2019-04-16T03:01:02.447Z,29.80
2019-04-16T03:02:02.459Z,29.80
2019-04-16T03:03:02.414Z,29.00
2019-04-16T03:04:02.417Z,27.90
2019-04-16T03:05:02.439Z,28.80
2019-04-16T03:06:02.427Z,31.80
2019-04-16T03:07:03.334Z,30.60
2019-04-16T03:08:04.608Z,29.90
2019-04-16T03:09:02.417Z,33.00
2019-04-16T03:10:02.821Z,30.80
2019-04-16T03:11:02.448Z,30.80
2019-04-16T03:12:02.442Z,28.40
2019-04-16T03:13:02.417Z,29.20
2019-04-16T03:14:02.422Z,29.30
2019-04-16T03:15:02.820Z,29.60
2019-04-16T03:16:05.689Z,28.10
2019-04-16T03:17:02.436Z,27.70
2019-04-16T03:18:02.566Z,27.60
2019-04-16T03:19:02.453Z,27.60
2019-04-16T03:20:02.423Z,28.30
2019-04-16T03:21:02.497Z,30.10
2019-04-16T03:22:03.303Z,30.60
2019-04-16T03:23:05.645Z,27.40
2019-04-16T03:24:02.708Z,27.00
2019-04-16T03:25:02.585Z,29.80
2019-04-16T03:26:02.703Z,28.00
2019-04-16T03:27:04.602Z,25.90
2019-04-16T03:28:02.625Z,25.70
2019-04-16T03:29:02.435Z,27.00
2019-04-16T03:30:03.459Z,25.50
2019-04-16T03:31:07.480Z,27.50
2019-04-16T03:32:02.424Z,28.50
2019-04-16T03:33:10.282Z,27.40
2019-04-16T03:34:02.487Z,26.30
2019-04-16T03:35:02.448Z,28.50
2019-04-16T03:36:02.477Z,25.90
2019-04-16T03:37:03.037Z,27.70
2019-04-16T03:38:05.067Z,25.90
2019-04-16T03:39:02.439Z,26.60
2019-04-16T03:40:15.108Z,28.40
2019-04-16T03:41:02.472Z,26.10
2019-04-16T03:42:02.459Z,25.50
2019-04-16T03:43:04.138Z,24.30
2019-04-16T03:44:04.212Z,25.50
2019-04-16T03:45:02.457Z,25.90
2019-04-16T03:46:02.430Z,25.20
2019-04-16T03:47:02.477Z,27.10
2019-04-16T03:48:02.448Z,29.40
2019-04-16T03:49:02.443Z,27.30
2019-04-16T03:50:02.458Z,29.60
2019-04-16T03:51:03.509Z,28.50
2019-04-16T03:52:04.823Z,27.40
2019-04-16T03:53:02.511Z,24.90
2019-04-16T03:54:04.900Z,28.20
2019-04-16T03:55:02.430Z,28.40
2019-04-16T03:56:02.470Z,25.70
2019-04-16T03:57:02.867Z,26.00
2019-04-16T03:58:05.178Z,25.70
2019-04-16T03:59:02.445Z,26.70
2019-04-16T04:00:02.691Z,25.80
2019-04-16T04:01:02.462Z,25.30
2019-04-16T04:02:02.447Z,25.40
2019-04-16T04:03:02.445Z,25.40
2019-04-16T04:04:02.463Z,28.30
2019-04-16T04:05:06.389Z,28.70
2019-04-16T04:06:03.508Z,27.70
2019-04-16T04:07:02.450Z,30.30
2019-04-16T04:08:02.459Z,31.30
2019-04-16T04:09:02.456Z,30.50
2019-04-16T04:10:02.469Z,29.10
2019-04-16T04:11:02.464Z,27.90
2019-04-16T04:12:02.460Z,28.70
2019-04-16T04:13:04.883Z,35.20
2019-04-16T04:14:02.488Z,34.70
2019-04-16T04:15:02.449Z,33.40
2019-04-16T04:16:02.465Z,35.50
2019-04-16T04:17:05.459Z,37.00
2019-04-16T04:18:02.506Z,38.10
2019-04-16T04:19:02.464Z,39.90
2019-04-16T04:20:02.496Z,41.00
2019-04-16T04:21:02.474Z,44.50
2019-04-16T04:22:02.472Z,40.60
2019-04-16T04:23:02.518Z,41.10
2019-04-16T04:24:02.773Z,38.10
2019-04-16T04:25:04.269Z,41.90
2019-04-16T04:26:02.463Z,38.10
2019-04-16T04:27:02.462Z,37.30
2019-04-16T04:28:02.468Z,33.90
2019-04-16T04:29:05.949Z,33.90
2019-04-16T04:30:02.472Z,32.20
2019-04-16T04:31:02.485Z,32.20
2019-04-16T04:32:03.387Z,31.80
2019-04-16T04:33:07.449Z,32.90
2019-04-16T04:34:02.487Z,32.90
2019-04-16T04:35:02.470Z,31.60
2019-04-16T04:36:02.470Z,31.60
2019-04-16T04:37:02.486Z,31.60
2019-04-16T04:38:04.083Z,31.80
2019-04-16T04:39:02.466Z,29.70
2019-04-16T04:40:02.459Z,32.10
2019-04-16T04:41:02.506Z,31.40
2019-04-16T04:42:02.478Z,31.70
2019-04-16T04:43:02.450Z,30.60
2019-04-16T04:44:04.355Z,30.40
2019-04-16T04:45:02.461Z,30.20
2019-04-16T04:46:02.486Z,30.40
2019-04-16T04:47:02.517Z,29.70
2019-04-16T04:48:02.495Z,29.10
2019-04-16T04:49:02.502Z,29.60
2019-04-16T04:50:03.442Z,27.40
2019-04-16T04:51:06.892Z,27.70
2019-04-16T04:52:02.469Z,27.00
2019-04-16T04:53:02.519Z,26.00
2019-04-16T04:54:02.497Z,23.70
2019-04-16T04:55:02.486Z,24.20
2019-04-16T04:56:02.466Z,25.00
2019-04-16T04:57:02.479Z,26.90
2019-04-16T04:58:03.332Z,25.10
2019-04-16T04:59:05.137Z,25.70
2019-04-16T05:00:02.481Z,22.40
2019-04-16T05:01:02.478Z,23.60
2019-04-16T05:02:02.483Z,22.30
2019-04-16T05:03:02.467Z,23.20
2019-04-16T05:04:02.488Z,22.70
2019-04-16T05:05:02.502Z,23.00
2019-04-16T05:06:02.465Z,23.60
2019-04-16T05:07:04.695Z,22.30
2019-04-16T05:08:02.487Z,27.40
2019-04-16T05:09:02.487Z,27.20
2019-04-16T05:10:04.618Z,27.30
2019-04-16T05:11:02.979Z,27.60
2019-04-16T05:12:02.478Z,27.70
2019-04-16T05:13:02.503Z,27.80
2019-04-16T05:14:02.503Z,27.70
2019-04-16T05:15:04.011Z,27.90
2019-04-16T05:16:02.801Z,27.90
2019-04-16T05:17:03.633Z,29.00
2019-04-16T05:18:05.564Z,27.80
2019-04-16T05:19:02.517Z,26.90
2019-04-16T05:20:02.492Z,28.30
2019-04-16T05:21:02.491Z,27.30
2019-04-16T05:22:02.501Z,29.20
2019-04-16T05:23:02.513Z,28.50
2019-04-16T05:24:02.506Z,28.20
2019-04-16T05:25:02.769Z,28.20
2019-04-16T05:26:04.698Z,28.00
2019-04-16T05:27:02.503Z,29.00
2019-04-16T05:28:02.512Z,28.50
2019-04-16T05:29:02.507Z,28.00
2019-04-16T05:30:02.505Z,28.10
2019-04-16T05:31:02.515Z,28.60
2019-04-16T05:32:02.532Z,26.40
2019-04-16T05:33:05.430Z,26.30
2019-04-16T05:34:02.575Z,26.30
2019-04-16T05:35:02.533Z,25.60
2019-04-16T05:36:02.526Z,24.80
2019-04-16T05:37:02.498Z,24.40
2019-04-16T05:38:02.532Z,24.80
2019-04-16T05:39:03.767Z,25.80
2019-04-16T05:40:02.518Z,25.10
2019-04-16T05:41:13.150Z,26.50
2019-04-16T05:42:02.526Z,25.70
2019-04-16T05:43:02.513Z,24.90
2019-04-16T05:44:02.503Z,25.50
2019-04-16T05:45:05.313Z,25.20
2019-04-16T05:46:02.524Z,24.30
2019-04-16T05:47:02.539Z,25.10
2019-04-16T05:48:02.524Z,25.20
2019-04-16T05:49:02.522Z,27.70
2019-04-16T05:50:02.498Z,26.70
2019-04-16T05:51:02.511Z,27.30
2019-04-16T05:52:03.826Z,27.70
2019-04-16T05:53:02.513Z,27.70
2019-04-16T05:54:02.522Z,26.80
2019-04-16T05:55:02.527Z,26.50
2019-04-16T05:56:02.541Z,27.40
2019-04-16T05:57:02.501Z,26.50
2019-04-16T05:58:02.519Z,25.60
2019-04-16T05:59:03.256Z,25.20
2019-04-16T06:00:03.373Z,23.30
2019-04-16T06:01:02.564Z,23.10
2019-04-16T06:02:02.540Z,22.70
2019-04-16T06:03:02.525Z,24.00
2019-04-16T06:04:02.519Z,26.70
2019-04-16T06:05:02.530Z,24.70
2019-04-16T06:06:02.559Z,24.20
2019-04-16T06:07:03.697Z,24.00
2019-04-16T06:08:02.533Z,24.20
2019-04-16T06:09:02.510Z,22.70
2019-04-16T06:10:02.513Z,24.80
2019-04-16T06:11:02.546Z,23.40
2019-04-16T06:12:02.533Z,23.80
2019-04-16T06:13:02.528Z,21.80
2019-04-16T06:14:02.548Z,22.70
2019-04-16T06:15:02.515Z,23.50
2019-04-16T06:16:02.520Z,25.70
2019-04-16T06:17:02.535Z,26.90
2019-04-16T06:18:05.337Z,22.10
2019-04-16T06:19:02.520Z,22.50
2019-04-16T06:20:02.533Z,22.50
2019-04-16T06:21:02.539Z,23.40
2019-04-16T06:22:02.558Z,22.30
2019-04-16T06:23:02.594Z,21.70
2019-04-16T06:24:03.521Z,20.90
2019-04-16T06:25:08.436Z,21.80
2019-04-16T06:26:02.584Z,22.90
2019-04-16T06:27:02.510Z,22.20
2019-04-16T06:28:02.546Z,22.80
2019-04-16T06:29:02.564Z,21.60
2019-04-16T06:30:02.540Z,21.20
2019-04-16T06:31:05.291Z,22.20
2019-04-16T06:32:02.559Z,20.80
2019-04-16T06:33:02.528Z,22.40
2019-04-16T06:34:02.537Z,21.30
2019-04-16T06:35:02.581Z,21.40
2019-04-16T06:36:02.567Z,21.50
2019-04-16T06:37:02.531Z,21.20
2019-04-16T06:38:02.538Z,21.90
2019-04-16T06:39:02.522Z,21.80
2019-04-16T06:40:02.549Z,21.70
2019-04-16T06:41:03.329Z,21.40
2019-04-16T06:42:02.547Z,20.80
2019-04-16T06:43:02.860Z,21.10
2019-04-16T06:44:04.206Z,20.80
2019-04-16T06:45:04.952Z,21.10
2019-04-16T06:46:02.555Z,20.40
2019-04-16T06:47:02.574Z,22.40
2019-04-16T06:48:02.542Z,22.10
2019-04-16T06:49:02.537Z,21.40
2019-04-16T06:50:02.555Z,21.00
2019-04-16T06:51:02.551Z,21.30
2019-04-16T06:52:02.558Z,22.40
2019-04-16T06:53:02.596Z,21.40
2019-04-16T06:54:02.557Z,21.20
2019-04-16T06:55:03.575Z,22.00
2019-04-16T06:56:05.645Z,19.70
2019-04-16T06:57:02.541Z,20.10
2019-04-16T06:58:02.569Z,19.80
2019-04-16T06:59:02.587Z,20.10
2019-04-16T07:00:03.128Z,19.10
2019-04-16T07:01:05.888Z,19.30
2019-04-16T07:02:02.563Z,19.10
2019-04-16T07:03:03.029Z,19.70
2019-04-16T07:04:02.556Z,20.00
2019-04-16T07:05:02.575Z,20.30
2019-04-16T07:06:03.907Z,18.50
2019-04-16T07:07:07.842Z,19.70
2019-04-16T07:08:02.596Z,22.30
2019-04-16T07:09:02.540Z,19.80
2019-04-16T07:10:02.551Z,19.20
2019-04-16T07:11:02.576Z,18.60
2019-04-16T07:12:02.565Z,17.90
2019-04-16T07:13:02.548Z,17.80
2019-04-16T07:14:02.562Z,17.90
2019-04-16T07:15:02.546Z,19.10
2019-04-16T07:16:02.577Z,18.20
2019-04-16T07:17:02.605Z,18.90
2019-04-16T07:18:05.308Z,18.40
2019-04-16T07:19:02.566Z,16.80
2019-04-16T07:20:04.618Z,17.80
2019-04-16T07:21:02.555Z,19.30
2019-04-16T07:22:02.582Z,18.50
2019-04-16T07:23:02.569Z,18.40
2019-04-16T07:24:02.622Z,19.50
2019-04-16T07:25:04.490Z,19.00
2019-04-16T07:26:03.861Z,19.60
2019-04-16T07:27:02.564Z,19.10
2019-04-16T07:28:02.581Z,19.10
2019-04-16T07:29:02.609Z,19.60
2019-04-16T07:30:06.762Z,18.90
2019-04-16T07:31:02.859Z,18.60
2019-04-16T07:32:03.050Z,18.90
2019-04-16T07:33:02.587Z,17.80
2019-04-16T07:34:02.584Z,17.90
2019-04-16T07:35:02.587Z,17.50
2019-04-16T07:36:02.595Z,16.90
2019-04-16T07:37:02.591Z,17.50
2019-04-16T07:38:05.773Z,18.10
2019-04-16T07:39:05.363Z,17.00
2019-04-16T07:40:02.600Z,17.90
2019-04-16T07:41:02.620Z,17.00
2019-04-16T07:42:10.554Z,16.40
2019-04-16T07:43:02.580Z,17.00
2019-04-16T07:44:08.148Z,17.60
2019-04-16T07:45:02.589Z,16.80
2019-04-16T07:46:02.621Z,17.40
2019-04-16T07:47:02.593Z,17.00
2019-04-16T07:48:05.903Z,16.70
2019-04-16T07:49:02.589Z,17.20
2019-04-16T07:50:02.620Z,17.30
2019-04-16T07:51:04.850Z,16.70
2019-04-16T07:52:06.959Z,17.00
2019-04-16T07:53:02.639Z,18.00
2019-04-16T07:54:03.169Z,17.80
2019-04-16T07:55:02.614Z,17.30
2019-04-16T07:56:02.584Z,17.40
2019-04-16T07:57:02.594Z,18.60
2019-04-16T07:58:02.773Z,17.70
2019-04-16T07:59:02.695Z,18.00
2019-04-16T08:00:02.608Z,16.80
2019-04-16T08:01:02.603Z,17.40
2019-04-16T08:02:02.625Z,17.20
2019-04-16T08:03:02.699Z,16.90
2019-04-16T08:04:03.261Z,17.00
2019-04-16T08:05:07.754Z,16.70
2019-04-16T08:06:02.613Z,16.50
2019-04-16T08:07:02.598Z,17.20
2019-04-16T08:08:02.857Z,16.60
2019-04-16T08:09:02.587Z,17.60
2019-04-16T08:10:03.321Z,17.20
2019-04-16T08:11:02.644Z,17.50
2019-04-16T08:12:02.696Z,17.80
2019-04-16T08:13:02.612Z,17.10
2019-04-16T08:14:02.790Z,17.10
2019-04-16T08:15:13.371Z,16.60
2019-04-16T08:16:02.618Z,16.10
2019-04-16T08:17:02.641Z,16.20
2019-04-16T08:18:02.801Z,16.50
2019-04-16T08:19:02.620Z,17.10
2019-04-16T08:20:02.665Z,16.10
2019-04-16T08:21:10.120Z,16.10
2019-04-16T08:22:02.617Z,15.10
2019-04-16T08:23:02.638Z,17.50
2019-04-16T08:24:02.626Z,19.40
2019-04-16T08:25:03.917Z,19.70
2019-04-16T08:26:04.336Z,17.10
2019-04-16T08:27:02.611Z,16.70
2019-04-16T08:28:02.621Z,17.70
2019-04-16T08:29:02.646Z,17.30
2019-04-16T08:30:04.134Z,15.80
2019-04-16T08:31:02.617Z,16.70
2019-04-16T08:32:02.634Z,15.80
2019-04-16T08:33:02.628Z,17.10
2019-04-16T08:34:02.632Z,17.00
2019-04-16T08:35:02.678Z,17.60
2019-04-16T08:36:02.625Z,15.70
2019-04-16T08:37:02.633Z,15.60
2019-04-16T08:38:02.623Z,15.80
2019-04-16T08:39:05.911Z,18.00
2019-04-16T08:40:02.633Z,18.40
2019-04-16T08:41:02.916Z,19.30
2019-04-16T08:42:02.650Z,17.90
2019-04-16T08:43:02.667Z,17.30
2019-04-16T08:44:03.815Z,17.60
2019-04-16T08:45:07.604Z,17.50
2019-04-16T08:46:02.652Z,18.40
2019-04-16T08:47:03.036Z,17.20
2019-04-16T08:48:02.672Z,17.30
2019-04-16T08:49:02.645Z,16.80
2019-04-16T08:50:02.668Z,16.60
2019-04-16T08:51:04.747Z,17.80
2019-04-16T08:52:02.829Z,17.20
2019-04-16T08:53:02.699Z,18.70
2019-04-16T08:54:02.654Z,17.90
2019-04-16T08:55:02.658Z,18.30
2019-04-16T08:56:02.640Z,17.40
2019-04-16T08:57:02.763Z,18.10
2019-04-16T08:58:06.055Z,18.40
2019-04-16T08:59:02.701Z,18.00
2019-04-16T09:00:02.652Z,17.30
2019-04-16T09:01:02.743Z,17.60
2019-04-16T09:02:02.668Z,18.70
2019-04-16T09:03:02.642Z,19.10
2019-04-16T09:04:03.087Z,18.10
2019-04-16T09:05:05.979Z,18.70
2019-04-16T09:06:04.298Z,19.30
2019-04-16T09:07:11.123Z,18.30
2019-04-16T09:08:12.144Z,18.40
2019-04-16T09:09:12.720Z,19.40
2019-04-16T09:10:16.168Z,19.30
2019-04-16T09:11:03.346Z,18.80
2019-04-16T09:12:07.999Z,19.60
2019-04-16T09:13:04.609Z,19.70
2019-04-16T09:14:02.677Z,18.90
2019-04-16T09:15:02.667Z,19.30
2019-04-16T09:16:02.656Z,17.80
2019-04-16T09:17:02.680Z,17.40
2019-04-16T09:18:02.676Z,17.40
2019-04-16T09:19:02.684Z,18.60
2019-04-16T09:20:05.148Z,18.50
2019-04-16T09:21:02.662Z,17.30
2019-04-16T09:22:02.666Z,17.80
2019-04-16T09:23:02.692Z,17.00
2019-04-16T09:24:08.567Z,17.20
2019-04-16T09:25:02.682Z,17.70
2019-04-16T09:26:13.616Z,18.40
2019-04-16T09:27:02.658Z,17.00
2019-04-16T09:28:02.690Z,18.60
2019-04-16T09:29:08.515Z,17.00
2019-04-16T09:30:02.683Z,17.50
2019-04-16T09:31:02.719Z,17.10
2019-04-16T09:32:02.696Z,16.80
2019-04-16T09:33:02.673Z,16.20
2019-04-16T09:34:05.754Z,16.80
2019-04-16T09:35:10.084Z,16.50
2019-04-16T09:36:02.676Z,15.90
2019-04-16T09:37:02.701Z,15.10
2019-04-16T09:38:02.697Z,15.30
2019-04-16T09:39:02.663Z,16.10
2019-04-16T09:40:15.592Z,15.60
2019-04-16T09:41:02.746Z,15.90
2019-04-16T09:42:02.773Z,15.30
2019-04-16T09:43:15.803Z,15.30
2019-04-16T09:44:02.738Z,14.30
2019-04-16T09:45:05.060Z,14.20
2019-04-16T09:46:10.381Z,15.30
2019-04-16T09:47:05.210Z,15.00
2019-04-16T09:48:03.773Z,14.30
2019-04-16T09:49:04.733Z,14.80
2019-04-16T09:50:02.687Z,16.20
2019-04-16T09:51:02.687Z,14.90
2019-04-16T09:52:03.950Z,15.00
2019-04-16T09:53:03.090Z,14.90
2019-04-16T09:54:02.695Z,15.10
2019-04-16T09:55:02.711Z,15.00
2019-04-16T09:56:02.741Z,14.80
2019-04-16T09:57:02.721Z,15.10
2019-04-16T09:58:06.066Z,14.10
2019-04-16T09:59:02.772Z,14.90
2019-04-16T10:00:02.689Z,15.20
2019-04-16T10:01:02.692Z,14.40
2019-04-16T10:02:02.746Z,15.00
2019-04-16T10:03:02.695Z,13.70
2019-04-16T10:04:02.719Z,14.50
2019-04-16T10:05:02.716Z,14.60
2019-04-16T10:06:05.279Z,15.20
2019-04-16T10:07:02.737Z,15.80
2019-04-16T10:08:02.761Z,15.60
2019-04-16T10:09:02.702Z,15.40
2019-04-16T10:10:02.728Z,15.20
2019-04-16T10:11:05.770Z,14.40
2019-04-16T10:12:05.036Z,14.70
2019-04-16T10:13:02.737Z,15.20
2019-04-16T10:14:02.741Z,15.10
2019-04-16T10:15:02.756Z,15.80
2019-04-16T10:16:02.756Z,15.70
2019-04-16T10:17:02.775Z,15.90
2019-04-16T10:18:02.715Z,14.70
2019-04-16T10:19:07.897Z,15.80
2019-04-16T10:20:02.758Z,15.20
2019-04-16T10:21:02.732Z,15.10
2019-04-16T10:22:02.734Z,15.00
2019-04-16T10:23:02.781Z,15.20
2019-04-16T10:24:02.731Z,13.80
2019-04-16T10:25:02.749Z,14.90
2019-04-16T10:26:02.773Z,14.40
2019-04-16T10:27:04.361Z,15.20
2019-04-16T10:28:04.960Z,15.20
2019-04-16T10:29:05.817Z,16.20
2019-04-16T10:30:02.727Z,14.70
2019-04-16T10:31:02.739Z,15.10
2019-04-16T10:32:02.788Z,15.40
2019-04-16T10:33:02.718Z,15.30
2019-04-16T10:34:02.786Z,15.90
2019-04-16T10:35:02.755Z,15.00
2019-04-16T10:36:04.807Z,15.20
2019-04-16T10:37:02.750Z,15.60
2019-04-16T10:38:02.772Z,15.00
2019-04-16T10:39:02.766Z,15.30
2019-04-16T10:40:04.893Z,15.10
2019-04-16T10:41:02.804Z,15.60
2019-04-16T10:42:02.725Z,15.20
2019-04-16T10:43:02.769Z,15.10
2019-04-16T10:44:02.747Z,14.90
2019-04-16T10:45:02.770Z,14.80
2019-04-16T10:46:02.818Z,15.00
2019-04-16T10:47:02.770Z,16.20
2019-04-16T10:48:02.756Z,16.10
2019-04-16T10:49:02.715Z,16.70
2019-04-16T10:50:02.787Z,16.20
2019-04-16T10:51:02.732Z,15.90
2019-04-16T10:52:02.787Z,16.00
2019-04-16T10:53:02.813Z,16.40
2019-04-16T10:54:02.737Z,15.50
2019-04-16T10:55:02.795Z,15.50
2019-04-16T10:56:02.798Z,16.10
2019-04-16T10:57:02.783Z,14.80
2019-04-16T10:58:02.775Z,16.20
2019-04-16T10:59:02.820Z,15.50
2019-04-16T11:00:02.749Z,16.10
2019-04-16T11:01:02.775Z,15.30
2019-04-16T11:02:02.869Z,15.60
2019-04-16T11:03:02.760Z,15.20
2019-04-16T11:04:04.833Z,15.10
2019-04-16T11:05:03.236Z,15.40
2019-04-16T11:06:02.767Z,15.40
2019-04-16T11:07:02.798Z,16.00
2019-04-16T11:08:04.345Z,15.30
2019-04-16T11:09:02.770Z,15.70
2019-04-16T11:10:02.803Z,15.70
2019-04-16T11:11:02.876Z,15.40
2019-04-16T11:12:05.405Z,15.70
2019-04-16T11:13:02.785Z,15.20
2019-04-16T11:14:02.811Z,16.30
2019-04-16T11:15:02.780Z,15.30
2019-04-16T11:16:02.791Z,15.80
2019-04-16T11:17:02.827Z,14.50
2019-04-16T11:18:02.788Z,15.40
2019-04-16T11:19:02.963Z,14.20
2019-04-16T11:20:03.179Z,14.30
2019-04-16T11:21:02.960Z,13.20
2019-04-16T11:22:03.914Z,13.30
2019-04-16T11:23:03.289Z,13.50
2019-04-16T11:24:03.087Z,14.10
2019-04-16T11:25:03.087Z,14.30
2019-04-16T11:26:02.775Z,15.10
2019-04-16T11:27:02.782Z,13.90
2019-04-16T11:28:02.814Z,14.70
2019-04-16T11:29:02.880Z,14.70
2019-04-16T11:30:02.899Z,14.40
2019-04-16T11:31:03.062Z,14.30
2019-04-16T11:32:03.031Z,14.20
2019-04-16T11:33:03.116Z,14.90
2019-04-16T11:34:03.001Z,14.40
2019-04-16T11:35:03.040Z,14.60
2019-04-16T11:36:17.415Z,13.70
2019-04-16T11:37:07.412Z,13.90
2019-04-16T11:38:03.010Z,14.20
2019-04-16T11:39:02.835Z,13.70
2019-04-16T11:40:03.188Z,14.40
2019-04-16T11:41:02.810Z,14.10
2019-04-16T11:42:02.793Z,13.90
2019-04-16T11:43:03.154Z,14.20
2019-04-16T11:44:14.264Z,14.70
2019-04-16T11:45:02.810Z,13.90
2019-04-16T11:46:03.055Z,13.90
2019-04-16T11:47:02.872Z,13.10
2019-04-16T11:48:03.013Z,13.50
2019-04-16T11:49:03.278Z,13.80
2019-04-16T11:50:02.838Z,13.70
2019-04-16T11:51:02.815Z,13.50
2019-04-16T11:52:02.927Z,15.40
2019-04-16T11:53:03.102Z,15.70
2019-04-16T11:54:03.091Z,14.80
2019-04-16T11:55:02.895Z,15.40
2019-04-16T11:56:02.902Z,14.70
2019-04-16T11:57:03.000Z,14.50
2019-04-16T11:58:02.837Z,13.30
2019-04-16T11:59:02.857Z,12.90
2019-04-16T12:00:07.714Z,12.80
2019-04-16T12:01:02.848Z,14.60
2019-04-16T12:02:02.927Z,14.20
2019-04-16T12:03:02.843Z,13.50
2019-04-16T12:04:02.872Z,14.40
2019-04-16T12:05:02.851Z,14.10
2019-04-16T12:06:02.830Z,14.30
2019-04-16T12:07:05.624Z,13.60
2019-04-16T12:08:02.871Z,13.50
2019-04-16T12:09:02.874Z,13.30
2019-04-16T12:10:02.857Z,13.80
2019-04-16T12:11:02.870Z,14.50
2019-04-16T12:12:02.845Z,14.20
2019-04-16T12:13:03.965Z,14.20
2019-04-16T12:14:04.224Z,13.40
2019-04-16T12:15:02.831Z,13.90
2019-04-16T12:16:02.868Z,14.00
2019-04-16T12:17:02.855Z,13.90
2019-04-16T12:18:02.833Z,13.80
2019-04-16T12:19:02.878Z,13.10
2019-04-16T12:20:02.946Z,13.40
2019-04-16T12:21:02.879Z,13.40
2019-04-16T12:22:02.885Z,12.70
2019-04-16T12:23:02.890Z,13.70
2019-04-16T12:24:02.890Z,12.30
2019-04-16T12:25:02.839Z,12.90
2019-04-16T12:26:02.853Z,13.90
2019-04-16T12:27:03.102Z,14.00
2019-04-16T12:28:06.525Z,13.30
2019-04-16T12:29:02.895Z,13.10
2019-04-16T12:30:02.881Z,12.90
2019-04-16T12:31:02.844Z,13.10
2019-04-16T12:32:04.338Z,12.50
2019-04-16T12:33:07.721Z,12.30
2019-04-16T12:34:02.896Z,12.50
2019-04-16T12:35:02.881Z,12.80
2019-04-16T12:36:02.928Z,11.90
2019-04-16T12:37:02.891Z,13.50
2019-04-16T12:38:02.872Z,13.40
2019-04-16T12:39:03.014Z,13.60
2019-04-16T12:40:02.932Z,13.80
2019-04-16T12:41:02.873Z,12.70
2019-04-16T12:42:02.879Z,12.70
2019-04-16T12:43:02.873Z,14.20
2019-04-16T12:44:02.924Z,13.80
2019-04-16T12:45:02.855Z,12.40
2019-04-16T12:46:02.885Z,13.60
2019-04-16T12:47:02.920Z,12.40
2019-04-16T12:48:02.903Z,12.40
2019-04-16T12:49:02.880Z,12.10
2019-04-16T12:50:02.926Z,11.60
2019-04-16T12:51:02.858Z,11.60
2019-04-16T12:52:03.152Z,11.40